Acton, IN

12:50 AM EST on November 23, 2014 (GMT -0500)
Wildcat Park-SE Side | Change Station
CLOSE
Current Station
Personal Weather Station
Location: Indianapolis, IN
Elevation: 850 ft
Nearby Weather Stations

Elev 850 ft 39.69 °N, 86.03 °W | Updated 2 seconds ago

Mostly Cloudy
Mostly Cloudy
47.9 °F
Feels Like 48 °F
N
2.0
Wind Variable Wind from SSE
Gusts 4.0 mph

Today
High -- | Low -- °F
--% Chance of Precip.
Yesterday
High -- | Low -- °F
Precip. -- in
7:37 AM 5:23 PM
New Moon, 1% visible
Pressure 30.01 in
Visibility 10.0 miles
Clouds Overcast 5000 ft
Windchill 48 °F
Dew Point 40 °F
Humidity 74%
Rainfall 0.00 in
Snow Depth Not available.
UV 0 out of 12
Pollen .10 out of 12
Air Quality Not available.
Flu Activity Not available.
METAR KGEZ 230453Z AUTO 19008KT 10SM -RA OVC050 11/03 A3001 RMK AO2 RAB19 SLP163 P0000 T01060033 401390000

More Conditions Fewer Conditions

Pressure 30.01 in
Visibility 10.0 miles
Clouds Overcast 5000 ft
Windchill 48 °F
Dew Point 40 °F
Humidity 74%
Rainfall 0.00 in
Snow Depth Not available.
UV 0 out of 12
Pollen .10 out of 12
Air Quality Not available.
Flu Activity Not available.
METAR KGEZ 230453Z AUTO 19008KT 10SM -RA OVC050 11/03 A3001 RMK AO2 RAB19 SLP163 P0000 T01060033 401390000

More Conditions Fewer Conditions

10-Day Weather Forecast

Almanac

Astronomy

Nov. 23, 2014 Rise Set
Actual Time
Civil Twilight
Nautical Twilight
Astronomical Twilight
Moon
Length of Visible Light
Length of Day
Tomorrow will be .
, % of the Moon is Illuminated

Today's Extremes

State Highs State Lows

Community

WunderPhotos

Upload Photos

1,773,017 photos uploaded!

WunderBlogs® & News

Nearby

Air Quality

  Air Quality AQ Index Pollutant
Not available.

Snow Depth

Station Depth Elevation

Earthquake Activity

City Distance Mag. Time & Date
Minimum magnitude displayed is 2.5.

Coastal Water Temperatures

Place Temperature

Nearby Weather Stations